sensor_id;sensor_type;location;lat;lon;timestamp;P1;durP1;ratioP1;P2;durP2;ratioP2
16804;SDS011;8520;50.102;20.010;2023-04-03T00:01:19;46.70;;;44.70;;
16804;SDS011;8520;50.102;20.010;2023-04-03T00:03:48;47.43;;;45.33;;
16804;SDS011;8520;50.102;20.010;2023-04-03T00:06:17;47.70;;;45.60;;
16804;SDS011;8520;50.102;20.010;2023-04-03T00:08:46;48.57;;;46.43;;
16804;SDS011;8520;50.102;20.010;2023-04-03T00:11:15;49.37;;;47.27;;
16804;SDS011;8520;50.102;20.010;2023-04-03T00:13:44;50.23;;;47.93;;
16804;SDS011;8520;50.102;20.010;2023-04-03T00:16:12;50.90;;;48.53;;
16804;SDS011;8520;50.102;20.010;2023-04-03T00:18:40;52.83;;;50.43;;
16804;SDS011;8520;50.102;20.010;2023-04-03T00:21:10;52.57;;;50.17;;
16804;SDS011;8520;50.102;20.010;2023-04-03T00:23:40;52.87;;;50.47;;
16804;SDS011;8520;50.102;20.010;2023-04-03T00:26:10;53.03;;;50.63;;
16804;SDS011;8520;50.102;20.010;2023-04-03T00:28:39;54.20;;;51.70;;
16804;SDS011;8520;50.102;20.010;2023-04-03T00:31:07;55.53;;;52.97;;
16804;SDS011;8520;50.102;20.010;2023-04-03T00:33:35;57.27;;;54.57;;
16804;SDS011;8520;50.102;20.010;2023-04-03T00:36:07;58.53;;;55.73;;
16804;SDS011;8520;50.102;20.010;2023-04-03T00:38:36;58.70;;;56.00;;
16804;SDS011;8520;50.102;20.010;2023-04-03T00:41:04;58.97;;;56.27;;
16804;SDS011;8520;50.102;20.010;2023-04-03T00:43:34;59.40;;;56.60;;
16804;SDS011;8520;50.102;20.010;2023-04-03T00:46:02;60.10;;;57.30;;
16804;SDS011;8520;50.102;20.010;2023-04-03T00:48:32;59.73;;;56.93;;
16804;SDS011;8520;50.102;20.010;2023-04-03T00:51:02;58.97;;;56.17;;
16804;SDS011;8520;50.102;20.010;2023-04-03T00:53:33;58.97;;;56.27;;
16804;SDS011;8520;50.102;20.010;2023-04-03T00:56:07;59.20;;;56.40;;
16804;SDS011;8520;50.102;20.010;2023-04-03T00:58:39;60.27;;;57.47;;
16804;SDS011;8520;50.102;20.010;2023-04-03T01:01:12;59.50;;;56.70;;
16804;SDS011;8520;50.102;20.010;2023-04-03T01:03:46;60.17;;;57.37;;
16804;SDS011;8520;50.102;20.010;2023-04-03T01:06:15;60.30;;;57.50;;
16804;SDS011;8520;50.102;20.010;2023-04-03T01:08:45;60.70;;;57.80;;
16804;SDS011;8520;50.102;20.010;2023-04-03T01:11:17;60.90;;;58.03;;
16804;SDS011;8520;50.102;20.010;2023-04-03T01:13:49;61.10;;;58.20;;
16804;SDS011;8520;50.102;20.010;2023-04-03T01:16:17;61.30;;;58.40;;
16804;SDS011;8520;50.102;20.010;2023-04-03T01:18:46;61.77;;;58.87;;
16804;SDS011;8520;50.102;20.010;2023-04-03T01:24:34;62.73;;;59.83;;
16804;SDS011;8520;50.102;20.010;2023-04-03T01:27:08;62.20;;;59.30;;
16804;SDS011;8520;50.102;20.010;2023-04-03T01:29:40;62.60;;;59.60;;
16804;SDS011;8520;50.102;20.010;2023-04-03T01:32:11;62.07;;;59.07;;
16804;SDS011;8520;50.102;20.010;2023-04-03T01:34:40;61.87;;;58.97;;
16804;SDS011;8520;50.102;20.010;2023-04-03T01:37:09;62.00;;;59.10;;
16804;SDS011;8520;50.102;20.010;2023-04-03T01:39:37;62.77;;;59.87;;
16804;SDS011;8520;50.102;20.010;2023-04-03T01:42:05;63.10;;;60.10;;
16804;SDS011;8520;50.102;20.010;2023-04-03T01:44:37;63.73;;;60.63;;
16804;SDS011;8520;50.102;20.010;2023-04-03T01:47:06;62.50;;;59.53;;
16804;SDS011;8520;50.102;20.010;2023-04-03T01:49:37;64.27;;;61.17;;
16804;SDS011;8520;50.102;20.010;2023-04-03T01:52:05;65.20;;;62.00;;
16804;SDS011;8520;50.102;20.010;2023-04-03T01:54:33;64.10;;;61.00;;
16804;SDS011;8520;50.102;20.010;2023-04-03T01:57:02;63.73;;;60.60;;
16804;SDS011;8520;50.102;20.010;2023-04-03T01:59:30;63.70;;;60.60;;
16804;SDS011;8520;50.102;20.010;2023-04-03T02:01:58;63.30;;;60.30;;
16804;SDS011;8520;50.102;20.010;2023-04-03T02:04:26;63.70;;;60.67;;
16804;SDS011;8520;50.102;20.010;2023-04-03T02:06:57;64.37;;;61.27;;
16804;SDS011;8520;50.102;20.010;2023-04-03T02:09:25;62.77;;;59.77;;
16804;SDS011;8520;50.102;20.010;2023-04-03T02:11:53;62.53;;;59.63;;
16804;SDS011;8520;50.102;20.010;2023-04-03T02:14:22;61.80;;;58.90;;
16804;SDS011;8520;50.102;20.010;2023-04-03T02:16:50;61.60;;;58.70;;
16804;SDS011;8520;50.102;20.010;2023-04-03T02:19:21;60.80;;;57.90;;
16804;SDS011;8520;50.102;20.010;2023-04-03T02:21:49;60.73;;;57.83;;
16804;SDS011;8520;50.102;20.010;2023-04-03T02:24:19;63.73;;;57.70;;
16804;SDS011;8520;50.102;20.010;2023-04-03T02:26:47;59.13;;;56.40;;
16804;SDS011;8520;50.102;20.010;2023-04-03T02:29:15;59.30;;;56.60;;
16804;SDS011;8520;50.102;20.010;2023-04-03T02:31:43;59.90;;;57.10;;
16804;SDS011;8520;50.102;20.010;2023-04-03T02:34:11;59.20;;;56.40;;
16804;SDS011;8520;50.102;20.010;2023-04-03T02:36:41;59.20;;;56.50;;
16804;SDS011;8520;50.102;20.010;2023-04-03T02:39:10;59.20;;;56.40;;
16804;SDS011;8520;50.102;20.010;2023-04-03T02:41:40;59.07;;;56.30;;
16804;SDS011;8520;50.102;20.010;2023-04-03T02:44:14;59.80;;;57.03;;
16804;SDS011;8520;50.102;20.010;2023-04-03T02:46:42;58.67;;;55.87;;
16804;SDS011;8520;50.102;20.010;2023-04-03T02:49:10;59.23;;;56.53;;
16804;SDS011;8520;50.102;20.010;2023-04-03T02:51:39;59.67;;;56.87;;
16804;SDS011;8520;50.102;20.010;2023-04-03T02:54:07;58.97;;;56.27;;
16804;SDS011;8520;50.102;20.010;2023-04-03T02:56:40;57.00;;;54.40;;
16804;SDS011;8520;50.102;20.010;2023-04-03T02:59:08;56.47;;;53.90;;
16804;SDS011;8520;50.102;20.010;2023-04-03T03:01:38;55.97;;;53.47;;
16804;SDS011;8520;50.102;20.010;2023-04-03T03:04:06;54.83;;;52.37;;
16804;SDS011;8520;50.102;20.010;2023-04-03T03:06:35;54.27;;;51.87;;
16804;SDS011;8520;50.102;20.010;2023-04-03T03:09:03;54.63;;;52.17;;
16804;SDS011;8520;50.102;20.010;2023-04-03T03:11:32;54.90;;;52.40;;
16804;SDS011;8520;50.102;20.010;2023-04-03T03:14:03;55.23;;;52.63;;
16804;SDS011;8520;50.102;20.010;2023-04-03T03:16:32;55.87;;;53.33;;
16804;SDS011;8520;50.102;20.010;2023-04-03T03:19:00;55.57;;;53.07;;
16804;SDS011;8520;50.102;20.010;2023-04-03T03:21:28;55.47;;;53.07;;
16804;SDS011;8520;50.102;20.010;2023-04-03T03:23:56;55.90;;;53.37;;
16804;SDS011;8520;50.102;20.010;2023-04-03T03:26:25;56.10;;;53.60;;
16804;SDS011;8520;50.102;20.010;2023-04-03T03:28:54;56.23;;;53.73;;
16804;SDS011;8520;50.102;20.010;2023-04-03T03:31:23;56.30;;;53.70;;
16804;SDS011;8520;50.102;20.010;2023-04-03T03:33:51;56.10;;;53.50;;
16804;SDS011;8520;50.102;20.010;2023-04-03T03:36:21;54.63;;;52.23;;
16804;SDS011;8520;50.102;20.010;2023-04-03T03:38:49;54.27;;;51.77;;
16804;SDS011;8520;50.102;20.010;2023-04-03T03:41:17;54.80;;;52.30;;
16804;SDS011;8520;50.102;20.010;2023-04-03T03:43:46;54.47;;;51.97;;
16804;SDS011;8520;50.102;20.010;2023-04-03T03:46:15;54.17;;;51.70;;
16804;SDS011;8520;50.102;20.010;2023-04-03T03:48:45;54.17;;;51.77;;
16804;SDS011;8520;50.102;20.010;2023-04-03T03:51:14;54.80;;;52.30;;
16804;SDS011;8520;50.102;20.010;2023-04-03T03:53:43;54.57;;;52.07;;
16804;SDS011;8520;50.102;20.010;2023-04-03T03:56:14;55.10;;;51.83;;
16804;SDS011;8520;50.102;20.010;2023-04-03T03:58:44;53.97;;;51.47;;
16804;SDS011;8520;50.102;20.010;2023-04-03T04:01:13;53.07;;;50.67;;
16804;SDS011;8520;50.102;20.010;2023-04-03T04:03:47;52.87;;;50.57;;
16804;SDS011;8520;50.102;20.010;2023-04-03T04:06:19;53.03;;;49.87;;
16804;SDS011;8520;50.102;20.010;2023-04-03T04:08:47;53.53;;;51.13;;
16804;SDS011;8520;50.102;20.010;2023-04-03T04:11:16;52.93;;;50.60;;
16804;SDS011;8520;50.102;20.010;2023-04-03T04:13:46;53.37;;;50.87;;
16804;SDS011;8520;50.102;20.010;2023-04-03T04:16:16;52.83;;;50.53;;
16804;SDS011;8520;50.102;20.010;2023-04-03T04:18:44;52.57;;;50.27;;
16804;SDS011;8520;50.102;20.010;2023-04-03T04:21:14;53.50;;;51.10;;
16804;SDS011;8520;50.102;20.010;2023-04-03T04:23:43;52.60;;;50.23;;
16804;SDS011;8520;50.102;20.010;2023-04-03T04:26:12;52.57;;;50.17;;
16804;SDS011;8520;50.102;20.010;2023-04-03T04:28:41;51.47;;;49.17;;
16804;SDS011;8520;50.102;20.010;2023-04-03T04:31:09;49.60;;;47.40;;
16804;SDS011;8520;50.102;20.010;2023-04-03T04:33:37;47.57;;;45.53;;
16804;SDS011;8520;50.102;20.010;2023-04-03T04:36:08;46.77;;;44.40;;
16804;SDS011;8520;50.102;20.010;2023-04-03T04:38:38;45.70;;;43.70;;
16804;SDS011;8520;50.102;20.010;2023-04-03T04:41:06;45.23;;;43.23;;
16804;SDS011;8520;50.102;20.010;2023-04-03T04:43:35;45.77;;;43.50;;
16804;SDS011;8520;50.102;20.010;2023-04-03T04:46:04;44.20;;;42.30;;
16804;SDS011;8520;50.102;20.010;2023-04-03T04:48:39;45.50;;;43.50;;
16804;SDS011;8520;50.102;20.010;2023-04-03T04:51:09;46.37;;;44.27;;
16804;SDS011;8520;50.102;20.010;2023-04-03T04:53:39;45.83;;;43.83;;
16804;SDS011;8520;50.102;20.010;2023-04-03T04:56:11;45.90;;;43.90;;
16804;SDS011;8520;50.102;20.010;2023-04-03T04:58:41;45.60;;;43.50;;
16804;SDS011;8520;50.102;20.010;2023-04-03T05:01:10;45.17;;;43.10;;
16804;SDS011;8520;50.102;20.010;2023-04-03T05:03:50;44.67;;;42.67;;
16804;SDS011;8520;50.102;20.010;2023-04-03T05:06:18;43.90;;;42.00;;
16804;SDS011;8520;50.102;20.010;2023-04-03T05:08:48;43.47;;;41.63;;
16804;SDS011;8520;50.102;20.010;2023-04-03T05:11:17;42.40;;;40.50;;
16804;SDS011;8520;50.102;20.010;2023-04-03T05:13:51;42.33;;;40.43;;
16804;SDS011;8520;50.102;20.010;2023-04-03T05:16:21;44.07;;;41.97;;
16804;SDS011;8520;50.102;20.010;2023-04-03T05:18:49;42.20;;;40.40;;
16804;SDS011;8520;50.102;20.010;2023-04-03T05:21:20;42.17;;;40.27;;
16804;SDS011;8520;50.102;20.010;2023-04-03T05:23:52;42.40;;;40.50;;
16804;SDS011;8520;50.102;20.010;2023-04-03T05:26:20;42.80;;;40.90;;
16804;SDS011;8520;50.102;20.010;2023-04-03T05:28:49;42.07;;;40.27;;
16804;SDS011;8520;50.102;20.010;2023-04-03T05:31:19;39.73;;;37.93;;
16804;SDS011;8520;50.102;20.010;2023-04-03T05:33:47;38.20;;;36.50;;
16804;SDS011;8520;50.102;20.010;2023-04-03T05:36:17;37.53;;;35.87;;
16804;SDS011;8520;50.102;20.010;2023-04-03T05:38:52;36.97;;;35.23;;
16804;SDS011;8520;50.102;20.010;2023-04-03T05:41:24;35.80;;;34.20;;
16804;SDS011;8520;50.102;20.010;2023-04-03T05:43:52;33.93;;;32.37;;
16804;SDS011;8520;50.102;20.010;2023-04-03T05:46:23;31.50;;;30.13;;
16804;SDS011;8520;50.102;20.010;2023-04-03T05:48:54;31.60;;;30.30;;
16804;SDS011;8520;50.102;20.010;2023-04-03T05:51:28;31.80;;;30.50;;
16804;SDS011;8520;50.102;20.010;2023-04-03T05:54:08;31.23;;;29.57;;
16804;SDS011;8520;50.102;20.010;2023-04-03T05:56:40;28.83;;;27.73;;
16804;SDS011;8520;50.102;20.010;2023-04-03T05:59:09;27.70;;;26.60;;
16804;SDS011;8520;50.102;20.010;2023-04-03T06:01:38;27.80;;;26.60;;
16804;SDS011;8520;50.102;20.010;2023-04-03T06:04:06;28.60;;;27.40;;
16804;SDS011;8520;50.102;20.010;2023-04-03T06:06:43;28.20;;;27.00;;
16804;SDS011;8520;50.102;20.010;2023-04-03T06:09:14;28.10;;;26.80;;
16804;SDS011;8520;50.102;20.010;2023-04-03T06:11:44;27.43;;;26.20;;
16804;SDS011;8520;50.102;20.010;2023-04-03T06:14:12;27.07;;;25.93;;
16804;SDS011;8520;50.102;20.010;2023-04-03T06:16:41;26.27;;;25.17;;
16804;SDS011;8520;50.102;20.010;2023-04-03T06:19:10;24.90;;;23.87;;
16804;SDS011;8520;50.102;20.010;2023-04-03T06:21:44;23.23;;;22.23;;
16804;SDS011;8520;50.102;20.010;2023-04-03T06:24:15;21.67;;;20.67;;
16804;SDS011;8520;50.102;20.010;2023-04-03T06:26:45;21.10;;;20.10;;
16804;SDS011;8520;50.102;20.010;2023-04-03T06:29:15;21.53;;;20.63;;
16804;SDS011;8520;50.102;20.010;2023-04-03T06:31:43;20.50;;;19.50;;
16804;SDS011;8520;50.102;20.010;2023-04-03T06:34:11;19.90;;;19.10;;
16804;SDS011;8520;50.102;20.010;2023-04-03T06:36:40;18.67;;;17.77;;
16804;SDS011;8520;50.102;20.010;2023-04-03T06:39:08;18.47;;;17.57;;
16804;SDS011;8520;50.102;20.010;2023-04-03T06:41:42;17.37;;;16.57;;
16804;SDS011;8520;50.102;20.010;2023-04-03T06:44:10;16.90;;;16.17;;
16804;SDS011;8520;50.102;20.010;2023-04-03T06:46:39;16.50;;;15.60;;
16804;SDS011;8520;50.102;20.010;2023-04-03T06:49:08;14.83;;;14.13;;
16804;SDS011;8520;50.102;20.010;2023-04-03T06:51:37;13.37;;;12.70;;
16804;SDS011;8520;50.102;20.010;2023-04-03T06:54:05;12.07;;;11.47;;
16804;SDS011;8520;50.102;20.010;2023-04-03T06:56:34;12.67;;;12.10;;
16804;SDS011;8520;50.102;20.010;2023-04-03T06:59:04;12.87;;;12.20;;
16804;SDS011;8520;50.102;20.010;2023-04-03T07:01:32;13.03;;;12.40;;
16804;SDS011;8520;50.102;20.010;2023-04-03T07:04:01;12.83;;;12.13;;
16804;SDS011;8520;50.102;20.010;2023-04-03T07:06:29;14.03;;;13.33;;
16804;SDS011;8520;50.102;20.010;2023-04-03T07:08:58;19.13;;;17.70;;
16804;SDS011;8520;50.102;20.010;2023-04-03T07:11:26;18.43;;;17.07;;
16804;SDS011;8520;50.102;20.010;2023-04-03T07:13:54;12.33;;;11.63;;
16804;SDS011;8520;50.102;20.010;2023-04-03T07:16:24;10.50;;;9.70;;
16804;SDS011;8520;50.102;20.010;2023-04-03T07:18:52;10.07;;;9.37;;
16804;SDS011;8520;50.102;20.010;2023-04-03T07:21:20;10.10;;;9.53;;
16804;SDS011;8520;50.102;20.010;2023-04-03T07:23:48;11.30;;;10.50;;
16804;SDS011;8520;50.102;20.010;2023-04-03T07:26:17;11.47;;;10.73;;
16804;SDS011;8520;50.102;20.010;2023-04-03T07:28:47;8.50;;;8.00;;
16804;SDS011;8520;50.102;20.010;2023-04-03T07:31:16;9.23;;;8.70;;
16804;SDS011;8520;50.102;20.010;2023-04-03T07:33:46;8.40;;;7.90;;
16804;SDS011;8520;50.102;20.010;2023-04-03T07:36:16;7.70;;;7.27;;
16804;SDS011;8520;50.102;20.010;2023-04-03T07:38:45;7.57;;;7.17;;
16804;SDS011;8520;50.102;20.010;2023-04-03T07:41:14;7.13;;;6.83;;
16804;SDS011;8520;50.102;20.010;2023-04-03T07:43:44;6.67;;;6.27;;
16804;SDS011;8520;50.102;20.010;2023-04-03T07:46:13;6.97;;;6.47;;
16804;SDS011;8520;50.102;20.010;2023-04-03T07:48:41;6.50;;;6.17;;
16804;SDS011;8520;50.102;20.010;2023-04-03T07:51:11;6.60;;;6.20;;
16804;SDS011;8520;50.102;20.010;2023-04-03T07:53:39;5.70;;;5.40;;
16804;SDS011;8520;50.102;20.010;2023-04-03T07:56:08;5.73;;;5.30;;
16804;SDS011;8520;50.102;20.010;2023-04-03T07:58:37;6.30;;;5.80;;
16804;SDS011;8520;50.102;20.010;2023-04-03T08:01:05;5.33;;;5.03;;
16804;SDS011;8520;50.102;20.010;2023-04-03T08:03:33;5.33;;;4.93;;
16804;SDS011;8520;50.102;20.010;2023-04-03T08:06:03;5.67;;;5.27;;
16804;SDS011;8520;50.102;20.010;2023-04-03T08:08:42;5.83;;;5.23;;
16804;SDS011;8520;50.102;20.010;2023-04-03T08:11:10;5.00;;;4.70;;
16804;SDS011;8520;50.102;20.010;2023-04-03T08:13:39;5.47;;;4.97;;
16804;SDS011;8520;50.102;20.010;2023-04-03T08:16:11;5.67;;;5.27;;
16804;SDS011;8520;50.102;20.010;2023-04-03T08:18:42;5.50;;;5.10;;
16804;SDS011;8520;50.102;20.010;2023-04-03T08:21:11;5.20;;;4.80;;
16804;SDS011;8520;50.102;20.010;2023-04-03T08:23:40;6.07;;;5.63;;
16804;SDS011;8520;50.102;20.010;2023-04-03T08:26:10;5.43;;;5.07;;
16804;SDS011;8520;50.102;20.010;2023-04-03T08:28:39;5.77;;;5.37;;
16804;SDS011;8520;50.102;20.010;2023-04-03T08:31:09;4.00;;;3.80;;
16804;SDS011;8520;50.102;20.010;2023-04-03T08:33:39;4.77;;;4.47;;
16804;SDS011;8520;50.102;20.010;2023-04-03T08:36:14;4.63;;;4.23;;
16804;SDS011;8520;50.102;20.010;2023-04-03T08:38:46;4.77;;;4.47;;
16804;SDS011;8520;50.102;20.010;2023-04-03T08:41:15;4.30;;;4.00;;
16804;SDS011;8520;50.102;20.010;2023-04-03T08:43:54;4.47;;;4.17;;
16804;SDS011;8520;50.102;20.010;2023-04-03T08:46:27;4.60;;;4.20;;
16804;SDS011;8520;50.102;20.010;2023-04-03T08:49:07;4.40;;;4.10;;
16804;SDS011;8520;50.102;20.010;2023-04-03T08:51:41;5.17;;;4.57;;
16804;SDS011;8520;50.102;20.010;2023-04-03T08:54:21;4.50;;;4.20;;
16804;SDS011;8520;50.102;20.010;2023-04-03T08:56:55;5.13;;;4.70;;
16804;SDS011;8520;50.102;20.010;2023-04-03T08:59:28;5.63;;;5.23;;
16804;SDS011;8520;50.102;20.010;2023-04-03T09:02:01;5.20;;;4.80;;
16804;SDS011;8520;50.102;20.010;2023-04-03T09:04:33;4.70;;;4.30;;
16804;SDS011;8520;50.102;20.010;2023-04-03T09:07:02;4.23;;;3.93;;
16804;SDS011;8520;50.102;20.010;2023-04-03T09:09:38;4.60;;;4.30;;
16804;SDS011;8520;50.102;20.010;2023-04-03T09:12:12;4.30;;;4.00;;
16804;SDS011;8520;50.102;20.010;2023-04-03T09:14:49;4.80;;;4.40;;
16804;SDS011;8520;50.102;20.010;2023-04-03T09:17:29;4.73;;;4.37;;
16804;SDS011;8520;50.102;20.010;2023-04-03T09:20:09;5.17;;;4.77;;
16804;SDS011;8520;50.102;20.010;2023-04-03T09:22:46;6.03;;;4.90;;
16804;SDS011;8520;50.102;20.010;2023-04-03T09:25:21;5.00;;;4.60;;
16804;SDS011;8520;50.102;20.010;2023-04-03T09:27:52;5.47;;;5.13;;
16804;SDS011;8520;50.102;20.010;2023-04-03T09:30:21;5.93;;;5.23;;
16804;SDS011;8520;50.102;20.010;2023-04-03T09:32:52;4.90;;;4.57;;
16804;SDS011;8520;50.102;20.010;2023-04-03T09:35:23;5.07;;;4.77;;
16804;SDS011;8520;50.102;20.010;2023-04-03T09:38:17;6.33;;;5.83;;
16804;SDS011;8520;50.102;20.010;2023-04-03T09:40:50;5.40;;;5.00;;
16804;SDS011;8520;50.102;20.010;2023-04-03T09:43:30;5.30;;;5.00;;
16804;SDS011;8520;50.102;20.010;2023-04-03T09:46:17;5.07;;;4.77;;
16804;SDS011;8520;50.102;20.010;2023-04-03T09:48:55;5.17;;;4.77;;
16804;SDS011;8520;50.102;20.010;2023-04-03T09:51:35;4.80;;;4.50;;
16804;SDS011;8520;50.102;20.010;2023-04-03T09:57:11;4.67;;;4.40;;
16804;SDS011;8520;50.102;20.010;2023-04-03T09:59:42;5.53;;;4.40;;
16804;SDS011;8520;50.102;20.010;2023-04-03T10:02:21;4.60;;;4.30;;
16804;SDS011;8520;50.102;20.010;2023-04-03T10:04:56;4.60;;;4.20;;
16804;SDS011;8520;50.102;20.010;2023-04-03T10:07:33;4.83;;;4.47;;
16804;SDS011;8520;50.102;20.010;2023-04-03T10:10:15;4.57;;;4.27;;
16804;SDS011;8520;50.102;20.010;2023-04-03T10:12:48;4.40;;;4.10;;
16804;SDS011;8520;50.102;20.010;2023-04-03T10:15:16;4.03;;;3.77;;
16804;SDS011;8520;50.102;20.010;2023-04-03T10:17:51;4.60;;;4.20;;
16804;SDS011;8520;50.102;20.010;2023-04-03T10:20:31;4.70;;;4.30;;
16804;SDS011;8520;50.102;20.010;2023-04-03T10:23:12;3.87;;;3.60;;
16804;SDS011;8520;50.102;20.010;2023-04-03T10:25:46;4.33;;;3.97;;
16804;SDS011;8520;50.102;20.010;2023-04-03T10:28:26;4.43;;;4.03;;
16804;SDS011;8520;50.102;20.010;2023-04-03T10:31:03;4.77;;;4.43;;
